< Typhoon 201616 2016 Season Typhoon 201618 >
Typhoon 201617 (MEGI)
General InformationTrack Information on Google MapsDetailed Wind InformationForecast History on Google MapsAccess Analytics MapList of All Images || NewsDisaster Info.WeblogTrackbackTyphoon FrontTwiphoonTyphoon Now!Typhoon ImaginationDisaster Info. XMLResourceGoogle EarthGE AnimationAtom FeedGeoJSON
Detalied Best Track (Time Zone = UTC)
Year Month Day Hour Lat. Long. Pressure (hPa) Wind (kt) Class Image Chart
2016 9 22 18 15.4 141.1 1002 0 2 Image Chart
2016 9 23 00 15.7 140.6 1000 0 2 Image Chart
2016 9 23 06 16.0 139.7 1000 0 2 Image Chart
2016 9 23 12 16.4 138.8 998 0 2 Image Chart
2016 9 23 18 16.9 137.6 994 35 3 Image Chart
2016 9 24 00 17.5 136.5 990 40 3 Image Chart
2016 9 24 06 18.3 135.3 980 45 3 Image Chart
2016 9 24 12 18.7 133.9 975 55 4 Image Chart
2016 9 24 18 19.0 132.9 970 65 5 Image Chart
2016 9 25 00 19.5 131.6 970 65 5 Image Chart
2016 9 25 06 19.9 130.3 970 65 5 Image Chart
2016 9 25 12 20.2 129.3 970 65 5 Image Chart
2016 9 25 18 20.6 128.2 970 65 5 Image Chart
2016 9 26 00 20.8 127.3 970 65 5 Image Chart
2016 9 26 06 21.4 126.2 960 70 5 Image Chart
2016 9 26 09 21.6 125.9 960 70 5 Image Chart
2016 9 26 12 21.9 125.3 960 70 5 Image Chart
2016 9 26 15 22.2 124.8 960 70 5 Image Chart
2016 9 26 18 22.5 124.4 950 80 5 Image Chart
2016 9 26 21 22.8 123.7 950 80 5 Image Chart
2016 9 27 00 23.3 123.3 945 85 5 Image Chart
2016 9 27 03 23.7 122.5 945 85 5 Image Chart
2016 9 27 06 24.1 121.6 950 80 5 Image Chart
2016 9 27 09 23.8 120.9 960 75 5 Image Chart
2016 9 27 12 23.9 120.6 965 65 5 Image Chart
2016 9 27 18 24.4 119.6 975 55 4 Image Chart
2016 9 28 00 25.0 118.1 985 45 3 Image Chart
2016 9 28 06 25.3 117.0 990 35 3 Image Chart
2016 9 28 12 25.4 116.7 994 0 2 Image Chart
2016 9 28 18 25.6 116.6 998 0 2 Image Chart
2016 9 29 00 25.9 116.5 1002 0 2 Image Chart
2016 9 29 06 26.5 117.2 1002 0 2 Image Chart
Japan Meteorological Agency Best Track Data | Correction Date : 2016-10-31
< Typhoon 201616 2016 Season Typhoon 201618 >

Help